Time;durP1;ratioP1;P1;durP2;ratioP2;P2;SDS_P1;SDS_P2;PMS_P1;PMS_P2;Temp;Humidity;BMP_temperature;BMP_pressure;BME280_temperature;BME280_humidity;BME280_pressure;Samples;Min_cycle;Max_cycle;Signal;HPM_P1;HPM_P2
2024/01/09 00:00:34;;;;;;;;;24.25;23.50;;;;;6.11;92.13;101990.31;2096747;28;45943;-70
2024/01/09 00:01:40;;;;;;;;;22.75;21.00;;;;;6.11;92.18;101988.56;2097803;28;45524;-70
2024/01/09 00:02:40;;;;;;;;;28.00;24.40;;;;;6.13;91.42;101991.22;2089825;28;45737;-69
2024/01/09 00:03:40;;;;;;;;;24.25;23.25;;;;;6.11;91.62;101987.69;2095408;28;45502;-69
2024/01/09 00:04:41;;;;;;;;;21.50;21.50;;;;;6.11;91.73;101988.56;2096333;28;46583;-69
2024/01/09 00:05:41;;;;;;;;;24.00;23.75;;;;;6.13;91.55;101989.47;2094876;28;45029;-69
2024/01/09 00:06:41;;;;;;;;;21.75;21.75;;;;;6.12;91.49;101992.09;2097777;28;45952;-69
2024/01/09 00:07:42;;;;;;;;;26.00;23.50;;;;;6.11;91.14;101985.03;2096955;28;46373;-69
2024/01/09 00:08:43;;;;;;;;;21.50;18.25;;;;;6.14;90.71;101990.34;2096778;28;46947;-71
2024/01/09 00:09:43;;;;;;;;;21.00;19.00;;;;;6.13;90.37;101989.47;2093500;28;46144;-70
2024/01/09 00:10:43;;;;;;;;;19.75;19.50;;;;;6.14;90.39;101993.88;2096428;28;46337;-69
2024/01/09 00:11:44;;;;;;;;;21.75;20.50;;;;;6.13;90.05;101996.50;2097167;28;46753;-69
2024/01/09 00:12:44;;;;;;;;;21.75;20.75;;;;;6.14;90.50;102000.91;2097897;28;45621;-69
2024/01/09 00:13:45;;;;;;;;;15.50;15.50;;;;;6.13;89.89;101988.59;2097368;28;46402;-69
2024/01/09 00:14:45;;;;;;;;;18.25;18.25;;;;;6.11;89.89;101988.56;2097061;28;46419;-70
2024/01/09 00:15:45;;;;;;;;;21.00;20.50;;;;;6.11;89.50;101985.03;2097281;28;46452;-69
2024/01/09 00:16:45;;;;;;;;;20.50;20.25;;;;;6.09;89.71;101987.63;2097106;28;46492;-69
2024/01/09 00:17:46;;;;;;;;;16.50;14.75;;;;;6.09;89.12;101986.75;2095699;28;45441;-69
2024/01/09 00:18:53;;;;;;;;;17.00;16.75;;;;;6.09;89.31;101985.00;2097566;28;45650;-69
2024/01/09 00:19:53;;;;;;;;;23.80;23.00;;;;;6.09;89.30;101985.00;2095230;28;46950;-69
2024/01/09 00:20:54;;;;;;;;;20.75;19.25;;;;;6.09;89.74;101986.75;2102893;28;45601;-70
2024/01/09 00:21:55;;;;;;;;;23.00;22.00;;;;;6.09;89.58;101987.63;2104506;28;47183;-69
2024/01/09 00:22:56;;;;;;;;;20.20;20.20;;;;;6.09;89.54;101986.75;2097543;28;45668;-69
2024/01/09 00:23:56;;;;;;;;;23.50;19.75;;;;;6.07;89.50;101978.81;2097229;28;46449;-69
2024/01/09 00:24:56;;;;;;;;;21.75;19.25;;;;;6.10;89.68;101986.78;2096056;28;46190;-68
2024/01/09 00:25:57;;;;;;;;;21.75;20.50;;;;;6.11;89.44;101985.94;2096696;28;45540;-69
2024/01/09 00:26:57;;;;;;;;;18.00;18.00;;;;;6.11;89.51;101972.75;2096479;28;45863;-70
2024/01/09 00:27:58;;;;;;;;;16.25;16.25;;;;;6.12;89.26;101978.91;2096406;28;45573;-70
2024/01/09 00:28:58;;;;;;;;;22.00;21.00;;;;;6.15;88.82;101984.22;2087935;28;47329;-69
2024/01/09 00:29:59;;;;;;;;;21.50;20.50;;;;;6.13;88.88;101978.03;2087585;28;45631;-69
2024/01/09 00:30:59;;;;;;;;;20.25;18.50;;;;;6.12;88.09;101977.16;2096823;28;45751;-69
2024/01/09 00:32:00;;;;;;;;;20.00;18.25;;;;;6.10;88.17;101973.63;2096584;28;45576;-69
2024/01/09 00:33:00;;;;;;;;;17.00;17.00;;;;;6.10;88.21;101978.88;2096457;28;45979;-70
2024/01/09 00:34:00;;;;;;;;;22.00;19.00;;;;;6.10;88.34;101973.63;2096082;28;46803;-70
2024/01/09 00:35:01;;;;;;;;;23.25;21.00;;;;;6.09;87.94;101971.81;2096258;28;45917;-70
2024/01/09 00:36:03;;;;;;;;;17.75;13.00;;;;;6.09;88.14;101963.91;2096349;28;45301;-69
2024/01/09 00:37:03;;;;;;;;;21.20;17.40;;;;;6.09;87.42;101974.44;2096452;28;45691;-69
2024/01/09 00:38:03;;;;;;;;;17.75;17.50;;;;;6.07;87.60;101967.38;2094889;28;46823;-69
2024/01/09 00:39:04;;;;;;;;;20.75;18.50;;;;;6.04;86.91;101965.59;2096509;28;45720;-69
2024/01/09 00:40:04;;;;;;;;;21.50;18.25;;;;;6.05;87.40;101967.38;2096321;28;45958;-71
2024/01/09 00:41:05;;;;;;;;;19.25;17.00;;;;;6.05;87.26;101964.72;2096143;28;45396;-69
2024/01/09 00:42:05;;;;;;;;;30.75;26.50;;;;;6.06;87.57;101965.63;2079023;28;44942;-67
2024/01/09 00:43:05;;;;;;;;;28.00;26.00;;;;;6.06;87.75;101969.13;2079656;28;46135;-69
2024/01/09 00:44:06;;;;;;;;;20.25;17.75;;;;;6.05;87.31;101964.72;2079930;28;45877;-68
2024/01/09 00:45:07;;;;;;;;;16.50;16.50;;;;;6.03;87.30;101961.19;2079534;28;46478;-68
2024/01/09 00:46:07;;;;;;;;;17.20;17.20;;;;;6.04;87.22;101959.44;2079624;28;45550;-69
2024/01/09 00:47:07;;;;;;;;;11.00;11.00;;;;;6.04;87.47;101954.16;2079260;28;47038;-69
2024/01/09 00:48:08;;;;;;;;;17.50;16.25;;;;;6.05;87.33;101954.19;2079562;28;45319;-69
2024/01/09 00:49:08;;;;;;;;;19.50;17.25;;;;;6.05;87.64;101953.31;2080156;28;45899;-69
2024/01/09 00:50:09;;;;;;;;;20.00;18.50;;;;;6.05;87.50;101954.19;2080709;28;45632;-69
2024/01/09 00:51:09;;;;;;;;;18.00;16.50;;;;;6.04;87.34;101957.69;2079545;28;46235;-69
2024/01/09 00:52:10;;;;;;;;;17.75;17.75;;;;;6.05;87.32;101956.81;2079609;28;45995;-70
2024/01/09 00:53:10;;;;;;;;;16.25;16.25;;;;;6.05;87.49;101956.81;2079617;28;45590;-69
2024/01/09 00:54:10;;;;;;;;;20.00;18.25;;;;;6.06;86.83;101957.72;2079010;28;45746;-69
2024/01/09 00:55:12;;;;;;;;;17.00;15.50;;;;;6.04;87.12;101957.69;2080040;28;45489;-69
2024/01/09 00:56:12;;;;;;;;;19.20;17.00;;;;;6.04;86.55;101955.06;2079878;28;46097;-70
2024/01/09 00:57:13;;;;;;;;;19.00;16.00;;;;;6.05;86.49;101962.09;2088023;28;46160;-70
2024/01/09 00:58:13;;;;;;;;;10.20;10.20;;;;;6.03;86.64;101953.28;2088365;28;46188;-70
2024/01/09 00:59:14;;;;;;;;;17.25;17.00;;;;;6.05;86.53;101959.47;2087947;28;45506;-69
2024/01/09 01:00:14;;;;;;;;;18.25;18.25;;;;;6.05;86.29;101955.94;2087862;28;45731;-71
2024/01/09 01:01:15;;;;;;;;;17.25;16.25;;;;;6.04;85.98;101954.16;2087811;28;45921;-69
2024/01/09 01:02:15;;;;;;;;;15.75;13.75;;;;;6.05;86.23;101956.81;2092620;28;45063;-70
2024/01/09 01:03:16;;;;;;;;;17.00;16.25;;;;;6.08;86.50;101958.63;2089144;28;46597;-69
2024/01/09 01:04:17;;;;;;;;;18.75;17.50;;;;;6.08;86.32;101961.25;2088187;28;46597;-69
2024/01/09 01:05:17;;;;;;;;;18.00;18.00;;;;;6.06;86.24;101955.97;2087950;28;45817;-70
2024/01/09 01:06:17;;;;;;;;;19.50;17.00;;;;;6.08;86.24;101954.22;2087834;28;45972;-69
2024/01/09 01:07:18;;;;;;;;;14.00;13.00;;;;;6.08;86.41;101956.88;2087876;28;45512;-69
2024/01/09 01:08:18;;;;;;;;;17.25;17.25;;;;;6.08;85.96;101956.88;2079418;28;46006;-70
2024/01/09 01:09:19;;;;;;;;;17.50;15.50;;;;;6.08;85.49;101958.63;2079404;28;46741;-70
2024/01/09 01:10:20;;;;;;;;;16.25;15.75;;;;;6.07;85.57;101959.47;2079550;28;45222;-69
2024/01/09 01:11:20;;;;;;;;;21.00;14.50;;;;;6.05;85.46;101955.94;2079390;28;45596;-68
2024/01/09 01:12:20;;;;;;;;;16.25;15.00;;;;;6.06;85.90;101949.81;2086445;28;45634;-70
2024/01/09 01:13:21;;;;;;;;;21.25;17.00;;;;;6.05;85.99;101962.09;2087938;28;46965;-70
2024/01/09 01:14:21;;;;;;;;;16.25;16.25;;;;;6.05;85.76;101951.56;2097007;28;45788;-70
2024/01/09 01:15:23;;;;;;;;;23.25;18.50;;;;;6.06;85.77;101953.31;2097294;28;45645;-70
2024/01/09 01:16:23;;;;;;;;;17.80;16.80;;;;;6.05;85.84;101951.56;2096821;28;46761;-69
2024/01/09 01:17:23;;;;;;;;;14.50;14.25;;;;;6.05;85.97;101956.81;2097429;28;46418;-69
2024/01/09 01:18:24;;;;;;;;;16.25;14.25;;;;;6.05;86.19;101950.66;2096723;28;46574;-70
2024/01/09 01:19:24;;;;;;;;;14.50;14.25;;;;;6.05;85.27;101950.66;2097276;28;46235;-69
2024/01/09 01:20:24;;;;;;;;;17.25;14.25;;;;;6.06;85.96;101953.31;2096077;28;46513;-69
2024/01/09 01:21:25;;;;;;;;;16.25;16.25;;;;;6.05;85.48;101948.03;2096163;28;45576;-68
2024/01/09 01:22:25;;;;;;;;;17.00;14.25;;;;;6.07;85.85;101956.84;2097342;28;46010;-70
2024/01/09 01:23:25;;;;;;;;;18.75;15.75;;;;;6.05;85.46;101951.56;2097060;28;46609;-70
2024/01/09 01:24:26;;;;;;;;;18.75;14.75;;;;;6.05;85.60;101946.28;2096948;28;45911;-71
2024/01/09 01:25:26;;;;;;;;;16.75;14.50;;;;;6.04;84.88;101949.78;2096931;28;46169;-69
2024/01/09 01:26:26;;;;;;;;;14.50;14.50;;;;;6.04;84.95;101948.91;2096490;28;45491;-70
2024/01/09 01:27:27;;;;;;;;;17.00;17.00;;;;;6.05;85.48;101948.91;2096559;28;45274;-70
2024/01/09 01:28:27;;;;;;;;;13.75;13.25;;;;;6.07;85.35;101944.56;2097103;28;45384;-71
2024/01/09 01:29:27;;;;;;;;;17.50;13.00;;;;;6.08;84.90;101948.06;2095718;28;46267;-69
2024/01/09 01:30:27;;;;;;;;;17.50;14.25;;;;;6.07;85.00;101949.81;2096177;28;46452;-70
2024/01/09 01:31:28;;;;;;;;;17.50;13.25;;;;;6.08;84.97;101946.31;2096708;28;45618;-70
2024/01/09 01:32:28;;;;;;;;;16.50;16.00;;;;;6.10;84.63;101949.91;2096973;28;45857;-69
2024/01/09 01:33:29;;;;;;;;;14.25;13.50;;;;;6.09;84.54;101952.47;2097008;28;46461;-69
2024/01/09 01:34:29;;;;;;;;;17.00;15.25;;;;;6.08;84.05;101951.59;2096820;28;46149;-69
2024/01/09 01:35:29;;;;;;;;;17.75;13.25;;;;;6.06;83.66;101953.31;2097330;28;45865;-70
2024/01/09 01:36:30;;;;;;;;;18.25;14.50;;;;;6.04;83.68;101951.53;2096837;28;46237;-69
2024/01/09 01:37:31;;;;;;;;;15.60;13.80;;;;;6.02;83.46;101948.00;2096618;28;45209;-70
2024/01/09 01:38:31;;;;;;;;;17.00;13.00;;;;;6.01;83.43;101948.84;2097246;28;46128;-69
2024/01/09 01:39:31;;;;;;;;;14.25;14.25;;;;;5.98;83.38;101952.31;2096647;28;46700;-70
2024/01/09 01:40:32;;;;;;;;;12.25;12.25;;;;;5.99;83.51;101950.56;2096963;28;45644;-70
2024/01/09 01:41:32;;;;;;;;;16.75;14.75;;;;;5.98;83.58;101946.19;2097180;28;45446;-69
2024/01/09 01:42:32;;;;;;;;;12.00;11.00;;;;;6.01;83.74;101947.09;2097029;28;45401;-69
2024/01/09 01:43:33;;;;;;;;;20.50;16.25;;;;;6.00;83.83;101954.97;2096817;28;45541;-69
2024/01/09 01:44:33;;;;;;;;;13.75;13.00;;;;;6.02;84.17;101948.00;2096902;28;45898;-69
2024/01/09 01:45:33;;;;;;;;;17.50;15.00;;;;;6.03;84.31;101957.66;2095505;28;46443;-69
2024/01/09 01:46:34;;;;;;;;;12.75;12.75;;;;;6.03;83.52;101955.91;2098676;28;45064;-69
2024/01/09 01:47:34;;;;;;;;;15.00;14.25;;;;;6.00;83.54;101950.59;2101722;27;45398;-69
2024/01/09 01:48:35;;;;;;;;;17.00;15.50;;;;;6.01;83.47;101948.84;2096940;28;45697;-69
2024/01/09 01:49:36;;;;;;;;;16.00;13.00;;;;;6.00;83.97;101953.22;2096916;28;46379;-70
2024/01/09 01:50:37;;;;;;;;;14.00;13.25;;;;;6.01;83.64;101954.13;2096722;28;45521;-70
2024/01/09 01:51:39;;;;;;;;;17.00;16.00;;;;;6.00;83.53;101960.25;2096613;28;46939;-70
2024/01/09 01:52:41;;;;;;;;;15.80;14.60;;;;;5.98;83.23;101961.97;2096909;28;46037;-70
2024/01/09 01:53:42;;;;;;;;;17.00;13.00;;;;;5.97;83.33;101961.09;2089374;28;46363;-71
2024/01/09 01:54:42;;;;;;;;;14.00;14.00;;;;;5.99;83.56;101963.75;2097640;28;45666;-68
2024/01/09 01:55:43;;;;;;;;;13.00;13.00;;;;;6.00;83.65;101961.13;2097423;28;45601;-68
2024/01/09 01:56:46;;;;;;;;;14.00;12.75;;;;;6.01;83.52;101968.19;2096799;28;46671;-68
2024/01/09 01:57:49;;;;;;;;;14.20;14.20;;;;;6.03;83.47;101966.44;2096558;28;46277;-69
2024/01/09 01:58:50;;;;;;;;;20.00;16.80;;;;;6.03;83.85;101968.19;2096718;28;46315;-68
2024/01/09 01:59:50;;;;;;;;;15.00;12.50;;;;;6.03;83.62;101969.09;2096810;28;45850;-69
2024/01/09 02:00:51;;;;;;;;;12.50;12.25;;;;;6.02;83.00;101962.03;2096919;28;45449;-69
2024/01/09 02:01:51;;;;;;;;;13.00;13.00;;;;;6.01;82.93;101962.03;2096814;28;45728;-69
2024/01/09 02:02:53;;;;;;;;;16.00;16.00;;;;;6.00;83.34;101960.25;2096679;28;45865;-70
2024/01/09 02:03:54;;;;;;;;;13.00;13.00;;;;;5.99;83.06;101961.13;2095123;28;45305;-69
2024/01/09 02:04:55;;;;;;;;;15.80;14.80;;;;;6.00;82.84;101960.25;2102967;28;46067;-69
2024/01/09 02:05:57;;;;;;;;;17.00;17.00;;;;;5.99;83.08;101956.72;2097108;27;45572;-68
2024/01/09 02:06:58;;;;;;;;;11.40;11.40;;;;;6.00;83.02;101958.50;2096164;28;46482;-69
2024/01/09 02:07:59;;;;;;;;;14.00;13.50;;;;;6.01;83.41;101962.03;2094621;28;46377;-70
2024/01/09 02:08:59;;;;;;;;;12.25;12.25;;;;;6.00;83.31;101957.63;2096690;28;46261;-70
2024/01/09 02:10:00;;;;;;;;;14.75;14.00;;;;;6.00;83.31;101958.50;2096264;28;46406;-68
2024/01/09 02:11:00;;;;;;;;;13.75;12.50;;;;;6.01;83.62;101960.28;2096791;28;46633;-68
2024/01/09 02:12:01;;;;;;;;;13.00;12.00;;;;;5.99;83.53;101954.09;2096288;28;46559;-69
2024/01/09 02:13:01;;;;;;;;;18.50;14.75;;;;;5.99;83.09;101956.72;2096742;28;45584;-70
2024/01/09 02:14:01;;;;;;;;;16.00;13.00;;;;;6.00;83.08;101955.88;2096545;28;46127;-69
2024/01/09 02:15:02;;;;;;;;;12.00;12.00;;;;;6.01;83.11;101957.63;2096762;28;45040;-70
2024/01/09 02:16:03;;;;;;;;;15.50;13.75;;;;;6.01;83.05;101959.38;2096366;28;45636;-68
2024/01/09 02:17:03;;;;;;;;;11.25;11.25;;;;;6.01;82.60;101962.03;2104419;27;46834;-69
2024/01/09 02:18:04;;;;;;;;;12.50;11.75;;;;;6.00;82.78;101954.97;2112255;27;46257;-67
2024/01/09 02:19:04;;;;;;;;;16.00;14.25;;;;;5.96;82.88;101951.38;2096285;28;46435;-68
2024/01/09 02:20:09;;;;;;;;;14.50;13.00;;;;;5.98;82.31;101954.97;2090355;28;46521;-68
2024/01/09 02:21:09;;;;;;;;;14.80;13.40;;;;;5.93;82.33;101947.81;2096689;28;46571;-67
2024/01/09 02:22:09;;;;;;;;;14.25;12.00;;;;;5.93;83.01;101953.97;2096849;28;46006;-68
2024/01/09 02:23:10;;;;;;;;;13.50;11.25;;;;;5.94;82.76;101957.50;2096440;28;46213;-66
2024/01/09 02:24:10;;;;;;;;;16.75;12.00;;;;;5.93;82.57;101955.72;2095487;28;45602;-69
2024/01/09 02:25:10;;;;;;;;;14.00;14.00;;;;;5.91;82.72;101950.44;2083865;28;45998;-68
2024/01/09 02:26:19;;;;;;;;;11.50;11.50;;;;;5.93;82.72;101953.09;2090021;28;46278;-68
2024/01/09 02:27:41;;;;;;;;;13.60;13.60;;;;;5.92;82.10;101952.22;2097018;28;45646;-68
2024/01/09 02:28:47;;;;;;;;;13.00;13.00;;;;;5.91;82.04;101950.44;2096563;28;45895;-69
2024/01/09 02:29:50;;;;;;;;;15.40;15.40;;;;;5.93;82.47;101953.09;2096695;28;45423;-69
2024/01/09 02:30:53;;;;;;;;;14.60;13.40;;;;;5.92;82.14;101952.22;2096373;28;45960;-68
2024/01/09 02:31:54;;;;;;;;;13.80;13.80;;;;;5.93;81.99;101953.97;2088185;28;45910;-68
2024/01/09 02:32:55;;;;;;;;;15.50;13.25;;;;;5.92;81.93;101944.31;2095839;28;46248;-67
2024/01/09 02:33:57;;;;;;;;;15.25;14.00;;;;;5.93;81.84;101953.09;2097238;28;46560;-69
2024/01/09 02:34:59;;;;;;;;;15.20;14.20;;;;;5.92;81.94;101953.97;2096664;28;46437;-68
2024/01/09 02:35:59;;;;;;;;;11.80;11.80;;;;;5.92;81.82;101954.84;2096456;28;46725;-69
2024/01/09 02:36:59;;;;;;;;;17.00;13.50;;;;;5.88;81.70;101940.72;2096774;28;46481;-68
2024/01/09 02:38:00;;;;;;;;;14.75;11.75;;;;;5.85;81.53;101940.66;2096598;28;46314;-68
2024/01/09 02:39:00;;;;;;;;;13.00;12.00;;;;;5.86;81.98;101942.44;2096685;28;45922;-69
2024/01/09 02:40:02;;;;;;;;;11.00;11.00;;;;;5.88;81.98;101945.09;2096492;28;46659;-69
2024/01/09 02:41:03;;;;;;;;;16.20;15.20;;;;;5.83;81.67;101939.72;2095900;28;46885;-68
2024/01/09 02:42:03;;;;;;;;;11.75;9.50;;;;;5.79;82.45;101943.16;2096590;28;45417;-69
2024/01/09 02:43:04;;;;;;;;;11.75;11.00;;;;;5.81;82.66;101944.06;2095379;28;45997;-69
2024/01/09 02:44:05;;;;;;;;;16.25;15.75;;;;;5.82;82.75;101945.84;2096652;28;47179;-69
2024/01/09 02:45:05;;;;;;;;;18.00;16.75;;;;;5.80;83.26;101941.41;2096650;28;45943;-69
2024/01/09 02:46:05;;;;;;;;;16.00;14.25;;;;;5.80;83.09;101938.78;2096121;28;46762;-69
2024/01/09 02:47:06;;;;;;;;;14.00;14.00;;;;;5.81;82.61;101943.19;2096516;28;45927;-68
2024/01/09 02:48:06;;;;;;;;;14.50;14.50;;;;;5.82;82.14;101937.06;2096401;28;46348;-69
2024/01/09 02:49:07;;;;;;;;;14.25;12.50;;;;;5.85;82.29;101939.78;2096474;28;46169;-68
2024/01/09 02:50:07;;;;;;;;;17.25;16.75;;;;;5.86;82.25;101945.06;2096810;28;45928;-71
2024/01/09 02:51:07;;;;;;;;;16.00;15.25;;;;;5.85;81.97;101943.28;2096461;28;45729;-70
2024/01/09 02:52:08;;;;;;;;;14.50;14.25;;;;;5.85;82.28;101948.56;2096380;28;46384;-69
2024/01/09 02:53:08;;;;;;;;;16.25;12.75;;;;;5.85;81.83;101940.66;2096774;28;45424;-70
2024/01/09 02:54:08;;;;;;;;;16.75;14.75;;;;;5.86;82.12;101944.19;2096405;28;45489;-70
2024/01/09 02:55:09;;;;;;;;;13.50;13.50;;;;;5.86;81.59;101941.53;2097261;28;46006;-70
2024/01/09 02:56:09;;;;;;;;;15.75;15.75;;;;;5.84;81.07;101941.53;2096331;28;45133;-70
2024/01/09 02:57:11;;;;;;;;;15.00;14.75;;;;;5.84;81.37;101937.97;2096264;28;45631;-70
2024/01/09 02:58:11;;;;;;;;;14.20;13.20;;;;;5.84;81.95;101943.25;2097655;28;45302;-69
2024/01/09 02:59:11;;;;;;;;;17.25;14.25;;;;;5.84;81.77;101938.88;2097417;28;46248;-70
2024/01/09 03:00:12;;;;;;;;;14.25;14.25;;;;;5.85;81.83;101942.41;2096272;28;44958;-70
2024/01/09 03:01:12;;;;;;;;;11.75;11.25;;;;;5.82;81.79;101940.59;2097660;28;46309;-70
2024/01/09 03:02:12;;;;;;;;;9.50;9.50;;;;;5.84;81.01;101940.59;2098055;28;45885;-70
2024/01/09 03:03:13;;;;;;;;;14.75;12.00;;;;;5.82;81.34;101939.69;2098205;28;45147;-70
2024/01/09 03:04:13;;;;;;;;;12.50;12.25;;;;;5.81;81.16;101941.44;2097423;28;46405;-70
2024/01/09 03:05:13;;;;;;;;;13.50;13.00;;;;;5.80;80.49;101937.03;2097949;28;46848;-70
2024/01/09 03:06:14;;;;;;;;;16.00;12.50;;;;;5.78;80.84;101932.63;2098060;28;45230;-70
2024/01/09 03:07:14;;;;;;;;;12.00;12.00;;;;;5.77;80.58;101941.38;2097809;28;44913;-70
2024/01/09 03:08:14;;;;;;;;;12.00;9.75;;;;;5.75;80.77;101940.47;2098155;28;45485;-70
2024/01/09 03:09:16;;;;;;;;;13.50;11.00;;;;;5.75;81.00;101940.47;2101880;28;45176;-69
2024/01/09 03:10:16;;;;;;;;;13.00;12.40;;;;;5.76;81.21;101931.72;2102240;27;45663;-70
2024/01/09 03:11:17;;;;;;;;;12.50;12.50;;;;;5.74;81.42;101934.31;2097670;28;46731;-71
2024/01/09 03:12:17;;;;;;;;;17.00;14.75;;;;;5.76;81.13;101929.06;2098034;28;45771;-70
2024/01/09 03:13:17;;;;;;;;;15.00;15.00;;;;;5.75;80.92;101933.44;2098013;28;46840;-70
2024/01/09 03:14:18;;;;;;;;;14.75;11.50;;;;;5.76;81.30;101934.34;2093781;28;45129;-69
2024/01/09 03:15:18;;;;;;;;;11.50;11.50;;;;;5.75;80.61;101929.94;2095132;28;45565;-70
2024/01/09 03:16:18;;;;;;;;;11.50;11.00;;;;;5.75;81.08;101929.94;2096291;28;47232;-69
2024/01/09 03:17:19;;;;;;;;;12.00;12.00;;;;;5.75;80.79;101932.56;2092110;28;46639;-69
2024/01/09 03:18:19;;;;;;;;;16.00;13.00;;;;;5.74;81.09;101931.69;2098533;28;45584;-70
2024/01/09 03:19:19;;;;;;;;;12.25;11.25;;;;;5.76;81.15;101924.69;2097663;28;46265;-69
2024/01/09 03:20:20;;;;;;;;;16.00;16.00;;;;;5.76;81.76;101927.31;2098073;28;48021;-71
2024/01/09 03:21:20;;;;;;;;;12.25;12.25;;;;;5.77;81.43;101928.22;2097359;28;46842;-70
2024/01/09 03:22:20;;;;;;;;;14.50;12.50;;;;;5.79;81.90;101932.63;2097928;28;46556;-69
2024/01/09 03:23:20;;;;;;;;;17.00;17.00;;;;;5.78;81.66;101922.97;2097850;28;45725;-68
2024/01/09 03:24:21;;;;;;;;;11.75;11.00;;;;;5.78;81.64;101925.59;2098044;28;45480;-69
2024/01/09 03:25:26;;;;;;;;;12.50;9.25;;;;;5.79;80.86;101929.13;2097658;28;46273;-70
2024/01/09 03:26:26;;;;;;;;;13.80;11.80;;;;;5.77;80.92;101922.94;2097423;28;46343;-69
2024/01/09 03:27:26;;;;;;;;;11.75;11.75;;;;;5.78;81.29;101925.59;2097681;28;46390;-69
2024/01/09 03:28:27;;;;;;;;;12.25;11.75;;;;;5.77;80.81;101931.72;2098093;28;45849;-69
2024/01/09 03:29:27;;;;;;;;;17.00;13.00;;;;;5.78;80.80;101924.72;2097662;28;45566;-68
2024/01/09 03:30:29;;;;;;;;;15.00;13.00;;;;;5.79;81.17;101926.47;2098141;28;45700;-69
2024/01/09 03:31:30;;;;;;;;;13.20;12.40;;;;;5.78;80.70;101927.34;2097227;28;46881;-69
2024/01/09 03:32:30;;;;;;;;;15.00;15.00;;;;;5.78;80.76;101924.72;2098009;28;45778;-69
2024/01/09 03:33:31;;;;;;;;;16.00;13.50;;;;;5.77;80.30;101926.47;2092989;28;45951;-69
2024/01/09 03:34:31;;;;;;;;;12.75;12.75;;;;;5.75;80.51;101925.56;2091893;28;45747;-69
2024/01/09 03:35:31;;;;;;;;;13.75;12.50;;;;;5.75;81.05;101925.56;2097800;28;45701;-69
2024/01/09 03:36:32;;;;;;;;;12.00;12.00;;;;;5.76;80.56;101921.16;2097682;28;45502;-70
2024/01/09 03:37:32;;;;;;;;;13.00;12.00;;;;;5.77;80.82;101925.56;2098339;28;45484;-68
2024/01/09 03:38:32;;;;;;;;;15.00;12.00;;;;;5.77;80.31;101928.22;2097750;28;45187;-69
2024/01/09 03:39:33;;;;;;;;;13.00;13.00;;;;;5.77;80.68;101930.84;2097622;28;46976;-68
2024/01/09 03:40:34;;;;;;;;;16.75;14.75;;;;;5.78;81.26;101919.44;2097831;28;45249;-69
2024/01/09 03:41:34;;;;;;;;;14.75;14.75;;;;;5.79;81.00;101929.13;2097923;28;46077;-68
2024/01/09 03:42:34;;;;;;;;;12.75;11.00;;;;;5.80;81.26;101925.63;2096991;28;46474;-68
2024/01/09 03:43:35;;;;;;;;;14.75;13.00;;;;;5.80;81.17;101931.78;2097231;28;46288;-69
2024/01/09 03:44:35;;;;;;;;;13.00;11.75;;;;;5.79;80.98;101927.38;2097647;28;45640;-69
2024/01/09 03:45:36;;;;;;;;;16.25;12.00;;;;;5.80;81.13;101930.88;2097941;28;45043;-68
2024/01/09 03:46:36;;;;;;;;;17.50;14.25;;;;;5.80;80.77;101928.25;2097635;28;46401;-69
2024/01/09 03:47:36;;;;;;;;;13.00;11.50;;;;;5.79;80.92;101930.00;2097562;28;46757;-69
2024/01/09 03:48:37;;;;;;;;;15.75;13.00;;;;;5.80;80.56;101928.25;2098240;28;45835;-69
2024/01/09 03:49:37;;;;;;;;;13.50;12.75;;;;;5.79;80.69;101926.47;2097525;28;46383;-69
2024/01/09 03:50:37;;;;;;;;;13.00;13.00;;;;;5.80;80.95;101928.25;2096520;28;45525;-68
2024/01/09 03:51:38;;;;;;;;;14.75;14.75;;;;;5.80;81.04;101920.34;2097826;28;45556;-69
2024/01/09 03:52:38;;;;;;;;;13.00;13.00;;;;;5.79;81.19;101924.72;2098168;28;45779;-68
2024/01/09 03:53:38;;;;;;;;;11.25;11.25;;;;;5.81;81.30;101919.50;2097176;28;47036;-68
2024/01/09 03:54:38;;;;;;;;;15.00;12.25;;;;;5.81;81.20;101923.00;2097109;28;46001;-69
2024/01/09 03:55:39;;;;;;;;;11.50;10.50;;;;;5.84;81.08;101916.91;2096907;28;46345;-68
2024/01/09 03:56:39;;;;;;;;;16.00;15.25;;;;;5.84;80.85;101922.16;2097797;28;45907;-68
2024/01/09 03:57:39;;;;;;;;;17.00;14.25;;;;;5.85;81.09;101922.22;2098054;28;45491;-68
2024/01/09 03:58:40;;;;;;;;;16.25;16.25;;;;;5.84;81.05;101919.53;2097350;28;45849;-68
2024/01/09 03:59:42;;;;;;;;;16.50;14.50;;;;;5.86;81.08;101921.34;2097509;28;46731;-67
2024/01/09 04:00:42;;;;;;;;;11.00;8.00;;;;;5.87;81.39;101920.50;2097494;28;46085;-68
2024/01/09 04:01:42;;;;;;;;;11.00;11.00;;;;;5.88;80.92;101919.63;2097596;28;45528;-69
2024/01/09 04:02:43;;;;;;;;;13.75;12.25;;;;;5.88;80.75;101919.63;2097696;28;45122;-68
2024/01/09 04:03:43;;;;;;;;;14.00;13.00;;;;;5.87;80.43;101917.84;2097799;28;45872;-68
2024/01/09 04:04:43;;;;;;;;;12.00;12.00;;;;;5.86;80.35;101916.09;2097816;28;45513;-69
2024/01/09 04:05:44;;;;;;;;;14.25;12.00;;;;;5.81;80.84;101912.47;2094980;28;46774;-69
2024/01/09 04:06:44;;;;;;;;;13.00;13.00;;;;;5.85;80.95;101918.69;2089733;28;46899;-69
2024/01/09 04:07:44;;;;;;;;;16.25;12.50;;;;;5.84;80.77;101916.91;2095338;28;47191;-68
2024/01/09 04:08:46;;;;;;;;;12.00;12.00;;;;;5.84;80.96;101916.91;2095163;28;45538;-69
2024/01/09 04:09:46;;;;;;;;;16.60;14.20;;;;;5.85;80.80;101921.34;2097046;28;46315;-69
2024/01/09 04:10:47;;;;;;;;;17.00;16.00;;;;;5.86;80.70;101918.72;2097581;28;45825;-68
2024/01/09 04:11:47;;;;;;;;;18.50;16.00;;;;;5.85;80.55;101918.69;2097447;28;46297;-69
2024/01/09 04:12:47;;;;;;;;;16.75;14.75;;;;;5.84;80.53;101916.91;2097557;28;46665;-68
2024/01/09 04:13:48;;;;;;;;;14.50;12.75;;;;;5.81;79.99;101916.84;2097638;28;45699;-69
2024/01/09 04:14:48;;;;;;;;;11.50;11.25;;;;;5.78;80.53;101919.44;2097667;28;46742;-68
2024/01/09 04:15:48;;;;;;;;;12.25;12.25;;;;;5.79;80.24;101924.72;2097830;28;45910;-68
2024/01/09 04:16:49;;;;;;;;;16.00;13.75;;;;;5.78;80.29;101924.72;2097586;28;46008;-68
2024/01/09 04:17:49;;;;;;;;;12.25;12.00;;;;;5.77;80.26;101920.31;2103769;28;46345;-68
2024/01/09 04:18:49;;;;;;;;;12.00;12.00;;;;;5.78;80.69;101919.44;2097852;27;46380;-68
2024/01/09 04:19:50;;;;;;;;;13.00;12.00;;;;;5.79;80.92;101922.09;2097514;28;45868;-68
2024/01/09 04:20:50;;;;;;;;;18.25;15.50;;;;;5.80;80.66;101931.78;2095664;28;45600;-69
2024/01/09 04:21:50;;;;;;;;;14.50;14.50;;;;;5.81;80.35;101911.59;2097404;28;46160;-70
2024/01/09 04:22:51;;;;;;;;;17.00;15.75;;;;;5.81;80.94;101916.84;2097001;28;46178;-69
2024/01/09 04:23:51;;;;;;;;;16.25;16.25;;;;;5.81;80.89;101917.75;2096803;28;45708;-68
2024/01/09 04:24:51;;;;;;;;;17.50;14.50;;;;;5.80;80.92;101918.59;2094954;28;46503;-68
2024/01/09 04:25:52;;;;;;;;;11.75;11.75;;;;;5.79;80.39;101923.84;2096111;28;45884;-68
2024/01/09 04:26:52;;;;;;;;;13.00;12.75;;;;;5.78;80.43;101914.19;2097705;28;45834;-68
2024/01/09 04:27:52;;;;;;;;;18.25;14.25;;;;;5.79;81.11;101921.22;2097555;28;46546;-70
2024/01/09 04:28:52;;;;;;;;;11.50;11.50;;;;;5.80;80.95;101909.81;2097888;28;46176;-69
2024/01/09 04:29:53;;;;;;;;;10.25;9.50;;;;;5.81;81.11;101919.50;2096572;28;45632;-70
2024/01/09 04:30:55;;;;;;;;;13.75;13.75;;;;;5.81;80.86;101919.50;2097252;28;46404;-70
2024/01/09 04:31:56;;;;;;;;;15.40;14.80;;;;;5.81;81.07;101917.75;2096947;28;47844;-69
2024/01/09 04:32:56;;;;;;;;;17.25;13.50;;;;;5.82;81.27;101918.63;2097486;28;46090;-68
2024/01/09 04:33:57;;;;;;;;;16.25;16.25;;;;;5.83;81.34;101921.28;2097630;28;45494;-68
2024/01/09 04:34:57;;;;;;;;;15.75;13.00;;;;;5.82;80.52;101913.34;2097624;28;46131;-69
2024/01/09 04:35:58;;;;;;;;;14.75;12.00;;;;;5.82;80.72;101921.25;2097706;28;46299;-70
2024/01/09 04:36:58;;;;;;;;;15.00;14.50;;;;;5.82;81.31;101922.16;2097630;28;45603;-69
2024/01/09 04:37:59;;;;;;;;;13.75;13.50;;;;;5.83;81.26;101918.66;2097279;28;46725;-69
2024/01/09 04:39:00;;;;;;;;;19.25;14.00;;;;;5.85;81.17;101916.06;2097707;28;45854;-68